createdAt,value
2017-08-09T00:01:49.846Z,57.30
2017-08-09T00:04:18.521Z,58.00
2017-08-09T00:06:46.769Z,58.00
2017-08-09T00:09:15.163Z,58.00
2017-08-09T00:11:43.880Z,58.20
2017-08-09T00:14:12.535Z,58.00
2017-08-09T00:16:40.785Z,57.90
2017-08-09T00:19:09.081Z,57.60
2017-08-09T00:21:37.561Z,57.30
2017-08-09T00:24:05.821Z,57.00
2017-08-09T00:26:34.093Z,56.70
2017-08-09T00:29:02.332Z,56.30
2017-08-09T00:31:30.580Z,56.00
2017-08-09T00:33:58.848Z,55.70
2017-08-09T00:36:27.083Z,55.70
2017-08-09T00:38:55.539Z,55.50
2017-08-09T00:41:24.229Z,55.80
2017-08-09T00:43:52.474Z,55.80
2017-08-09T00:46:20.971Z,55.80
2017-08-09T00:48:49.432Z,56.00
2017-08-09T00:51:17.675Z,56.00
2017-08-09T00:53:45.922Z,56.30
2017-08-09T00:56:14.789Z,55.80
2017-08-09T00:58:43.025Z,55.70
2017-08-09T01:01:11.272Z,55.70
2017-08-09T01:03:39.774Z,55.40
2017-08-09T01:06:08.023Z,55.70
2017-08-09T01:08:36.259Z,55.70
2017-08-09T01:11:04.535Z,55.80
2017-08-09T01:13:32.782Z,55.70
2017-08-09T01:16:01.023Z,55.80
2017-08-09T01:18:29.300Z,56.10
2017-08-09T01:20:58.060Z,56.70
2017-08-09T01:23:26.312Z,57.00
2017-08-09T01:25:54.583Z,57.20
2017-08-09T01:28:22.883Z,57.40
2017-08-09T01:30:51.125Z,57.70
2017-08-09T01:33:19.564Z,58.00
2017-08-09T01:35:47.801Z,57.90
2017-08-09T01:38:16.041Z,57.60
2017-08-09T01:40:44.330Z,57.70
2017-08-09T01:43:12.569Z,57.90
2017-08-09T01:45:41.026Z,57.90
2017-08-09T01:48:09.316Z,57.90
2017-08-09T01:50:37.573Z,58.60
2017-08-09T01:53:05.820Z,58.80
2017-08-09T01:55:34.085Z,58.80
2017-08-09T01:58:02.344Z,59.20
2017-08-09T02:00:30.592Z,59.50
2017-08-09T02:02:59.253Z,60.60
2017-08-09T02:05:27.504Z,60.60
2017-08-09T02:07:55.756Z,62.10
2017-08-09T02:10:24.058Z,63.30
2017-08-09T02:12:52.540Z,64.20
2017-08-09T02:15:20.791Z,64.40
2017-08-09T02:17:49.073Z,64.90
2017-08-09T02:20:17.318Z,65.50
2017-08-09T02:22:45.953Z,67.60
2017-08-09T02:25:14.263Z,67.60
2017-08-09T02:27:42.520Z,67.40
2017-08-09T02:30:10.834Z,68.30
2017-08-09T02:32:39.527Z,67.60
2017-08-09T02:35:07.782Z,67.60
2017-08-09T02:37:36.207Z,67.80
2017-08-09T02:40:04.486Z,67.80
2017-08-09T02:42:32.873Z,67.30
2017-08-09T02:45:01.126Z,66.40
2017-08-09T02:47:29.374Z,65.80
2017-08-09T02:49:57.637Z,66.20
2017-08-09T02:52:25.882Z,66.40
2017-08-09T02:54:54.143Z,66.60
2017-08-09T02:57:22.395Z,66.60
2017-08-09T02:59:50.639Z,66.00
2017-08-09T03:02:18.924Z,66.20
2017-08-09T03:04:47.567Z,65.80
2017-08-09T03:07:15.809Z,65.80
2017-08-09T03:09:44.093Z,65.70
2017-08-09T03:12:12.364Z,65.80
2017-08-09T03:14:40.611Z,66.20
2017-08-09T03:17:08.906Z,66.20
2017-08-09T03:19:37.542Z,67.40
2017-08-09T03:22:05.786Z,67.40
2017-08-09T03:24:34.067Z,67.80
2017-08-09T03:27:02.335Z,68.20
2017-08-09T03:29:30.600Z,68.50
2017-08-09T03:31:58.962Z,69.40
2017-08-09T03:34:27.214Z,69.40
2017-08-09T03:36:56.554Z,69.80
2017-08-09T03:39:24.852Z,69.80
2017-08-09T03:41:53.103Z,69.60
2017-08-09T03:44:22.149Z,70.00
2017-08-09T03:46:50.464Z,70.70
2017-08-09T03:49:18.728Z,70.90
2017-08-09T03:51:47.371Z,70.90
2017-08-09T03:54:15.632Z,70.90
2017-08-09T03:56:43.876Z,70.90
2017-08-09T03:59:12.500Z,72.30
2017-08-09T04:01:40.756Z,72.50
2017-08-09T04:04:09.217Z,71.80
2017-08-09T04:06:37.448Z,70.30
2017-08-09T04:09:05.715Z,68.50
2017-08-09T04:11:33.974Z,68.20
2017-08-09T04:14:02.239Z,67.80
2017-08-09T04:16:30.730Z,67.30
2017-08-09T04:18:58.985Z,66.40
2017-08-09T04:21:27.449Z,66.90
2017-08-09T04:23:56.119Z,66.20
2017-08-09T04:26:24.576Z,66.20
2017-08-09T04:28:52.844Z,65.30
2017-08-09T04:31:21.132Z,64.90
2017-08-09T04:33:49.398Z,64.90
2017-08-09T04:36:17.652Z,65.10
2017-08-09T04:38:46.041Z,63.50
2017-08-09T04:41:14.281Z,65.10
2017-08-09T04:43:42.518Z,65.70
2017-08-09T04:46:10.786Z,64.90
2017-08-09T04:48:39.032Z,65.10
2017-08-09T04:51:07.280Z,65.10
2017-08-09T04:53:35.971Z,64.80
2017-08-09T04:56:04.233Z,64.80
2017-08-09T04:58:32.475Z,63.10
2017-08-09T05:01:00.735Z,64.20
2017-08-09T05:03:29.029Z,64.20
2017-08-09T05:05:58.055Z,64.20
2017-08-09T05:08:26.778Z,63.70
2017-08-09T05:10:55.021Z,63.70
2017-08-09T05:13:23.702Z,66.60
2017-08-09T05:15:52.012Z,66.60
2017-08-09T05:18:20.260Z,66.90
2017-08-09T05:20:48.904Z,64.80
2017-08-09T05:23:17.289Z,64.80
2017-08-09T05:25:45.552Z,63.30
2017-08-09T05:28:13.806Z,62.80
2017-08-09T05:30:42.100Z,61.90
2017-08-09T05:33:10.355Z,62.40
2017-08-09T05:35:38.632Z,61.50
2017-08-09T05:38:06.945Z,60.60
2017-08-09T05:40:35.411Z,60.60
2017-08-09T05:43:03.664Z,60.10
2017-08-09T05:45:32.569Z,59.20
2017-08-09T05:48:01.530Z,58.30
2017-08-09T05:50:29.778Z,58.30
2017-08-09T05:52:58.032Z,58.00
2017-08-09T05:55:27.793Z,57.30
2017-08-09T05:57:56.077Z,57.20
2017-08-09T06:00:24.427Z,56.30
2017-08-09T06:02:52.724Z,56.10
2017-08-09T06:05:20.991Z,56.00
2017-08-09T06:07:49.295Z,55.40
2017-08-09T06:10:17.551Z,54.60
2017-08-09T06:12:45.896Z,54.10
2017-08-09T06:15:14.228Z,53.60
2017-08-09T06:17:42.471Z,52.60
2017-08-09T06:20:11.141Z,52.10
2017-08-09T06:22:39.821Z,51.50
2017-08-09T06:25:08.080Z,51.70
2017-08-09T06:27:36.390Z,51.10
2017-08-09T06:30:05.993Z,50.40
2017-08-09T06:32:34.654Z,49.50
2017-08-09T06:35:02.914Z,49.50
2017-08-09T06:37:31.205Z,48.40
2017-08-09T06:39:59.526Z,47.30
2017-08-09T06:42:27.784Z,46.10
2017-08-09T06:44:56.212Z,45.20
2017-08-09T06:47:24.493Z,44.60
2017-08-09T06:49:52.757Z,44.30
2017-08-09T06:52:21.016Z,43.90
2017-08-09T06:54:49.308Z,43.00
2017-08-09T06:57:17.593Z,42.10
2017-08-09T06:59:45.834Z,41.00
2017-08-09T07:02:14.081Z,40.20
2017-08-09T07:04:42.765Z,41.00
2017-08-09T07:07:11.032Z,42.80
2017-08-09T07:09:39.280Z,42.10
2017-08-09T07:12:07.564Z,41.80
2017-08-09T07:14:35.808Z,43.00
2017-08-09T07:17:04.045Z,41.00
2017-08-09T07:19:32.366Z,44.00
2017-08-09T07:22:00.963Z,42.20
2017-08-09T07:24:29.911Z,42.10
2017-08-09T07:26:58.772Z,44.00
2017-08-09T07:29:27.022Z,44.00
2017-08-09T07:31:55.271Z,42.40
2017-08-09T07:34:23.768Z,41.90
2017-08-09T07:36:52.042Z,42.70
2017-08-09T07:39:20.348Z,42.80
2017-08-09T07:41:48.628Z,43.60
2017-08-09T07:44:17.769Z,42.50
2017-08-09T07:46:46.020Z,41.20
2017-08-09T07:49:14.289Z,39.90
2017-08-09T07:51:42.524Z,40.00
2017-08-09T07:54:10.760Z,40.50
2017-08-09T07:56:39.016Z,40.60
2017-08-09T07:59:07.264Z,39.30
2017-08-09T08:01:35.539Z,38.20
2017-08-09T08:04:03.781Z,37.60
2017-08-09T08:06:32.039Z,36.90
2017-08-09T08:09:00.456Z,37.20
2017-08-09T08:11:30.905Z,35.70
2017-08-09T08:13:59.405Z,36.00
2017-08-09T08:16:27.676Z,38.40
2017-08-09T08:18:56.952Z,37.90
2017-08-09T08:21:25.201Z,37.80
2017-08-09T08:23:53.459Z,37.80
2017-08-09T08:26:21.717Z,37.20
2017-08-09T08:28:49.966Z,36.60
2017-08-09T08:31:18.529Z,36.90
2017-08-09T08:33:46.765Z,37.80
2017-08-09T08:36:15.030Z,38.70
2017-08-09T08:38:43.708Z,39.90
2017-08-09T08:41:11.946Z,39.90
2017-08-09T08:43:40.207Z,39.70
2017-08-09T08:46:08.452Z,39.40
2017-08-09T08:48:36.728Z,39.30
2017-08-09T08:51:05.233Z,38.10
2017-08-09T08:53:33.825Z,35.60
2017-08-09T08:56:02.072Z,34.70
2017-08-09T08:58:30.618Z,33.70
2017-08-09T09:00:58.906Z,32.90
2017-08-09T09:03:27.664Z,31.90
2017-08-09T09:05:55.941Z,32.00
2017-08-09T09:08:24.190Z,31.60
2017-08-09T09:10:52.656Z,30.30
2017-08-09T09:13:20.930Z,29.50
2017-08-09T09:15:49.173Z,29.50
2017-08-09T09:18:17.434Z,28.70
2017-08-09T09:20:45.714Z,28.10
2017-08-09T09:23:14.177Z,27.80
2017-08-09T09:25:42.661Z,26.90
2017-08-09T09:28:10.932Z,26.50
2017-08-09T09:30:39.184Z,26.70
2017-08-09T09:33:07.412Z,27.30
2017-08-09T09:35:35.784Z,26.70
2017-08-09T09:38:04.017Z,26.70
2017-08-09T09:40:32.275Z,26.30
2017-08-09T09:43:00.784Z,25.60
2017-08-09T09:45:29.034Z,26.70
2017-08-09T09:47:57.265Z,27.50
2017-08-09T09:50:25.521Z,26.90
2017-08-09T09:52:53.782Z,28.00
2017-08-09T09:55:22.043Z,28.50
2017-08-09T09:57:50.304Z,28.50
2017-08-09T10:00:18.571Z,28.90
2017-08-09T10:02:46.843Z,28.50
2017-08-09T10:05:15.489Z,27.90
2017-08-09T10:07:43.728Z,27.90
2017-08-09T10:10:12.021Z,28.40
2017-08-09T10:12:40.304Z,28.50
2017-08-09T10:15:08.550Z,27.70
2017-08-09T10:17:37.233Z,28.80
2017-08-09T10:20:05.465Z,28.80
2017-08-09T10:22:33.752Z,28.80
2017-08-09T10:25:02.128Z,29.40
2017-08-09T10:27:30.526Z,29.80
2017-08-09T10:29:58.810Z,30.40
2017-08-09T10:32:27.478Z,30.80
2017-08-09T10:34:55.707Z,30.80
2017-08-09T10:37:23.945Z,29.30
2017-08-09T10:39:52.614Z,29.10
2017-08-09T10:42:20.880Z,29.10
2017-08-09T10:44:49.701Z,28.30
2017-08-09T10:47:18.348Z,28.30
2017-08-09T10:49:47.534Z,28.30
2017-08-09T10:52:15.821Z,28.90
2017-08-09T10:54:44.276Z,28.40
2017-08-09T10:57:13.045Z,27.40
2017-08-09T10:59:41.327Z,27.60
2017-08-09T11:02:09.589Z,28.30
2017-08-09T11:04:37.878Z,28.60
2017-08-09T11:07:06.123Z,28.10
2017-08-09T11:09:34.776Z,29.50
2017-08-09T11:12:03.154Z,29.50
2017-08-09T11:14:31.433Z,29.20
2017-08-09T11:16:59.689Z,28.70
2017-08-09T11:19:27.968Z,29.30
2017-08-09T11:21:56.211Z,28.80
2017-08-09T11:24:24.682Z,28.00
2017-08-09T11:26:52.955Z,28.10
2017-08-09T11:29:21.222Z,28.00
2017-08-09T11:31:49.857Z,28.10
2017-08-09T11:34:18.120Z,28.10
2017-08-09T11:36:46.391Z,28.00
2017-08-09T11:39:15.241Z,28.70
2017-08-09T11:41:43.513Z,29.00
2017-08-09T11:44:11.759Z,29.00
2017-08-09T11:46:40.018Z,29.40
2017-08-09T11:49:08.268Z,29.70
2017-08-09T11:51:36.617Z,29.10
2017-08-09T11:54:04.872Z,28.50
2017-08-09T11:56:33.198Z,28.30
2017-08-09T11:59:01.450Z,27.50
2017-08-09T12:01:29.700Z,27.60
2017-08-09T12:03:58.024Z,28.00
2017-08-09T12:06:26.309Z,27.90
2017-08-09T12:08:54.634Z,27.90
2017-08-09T12:11:22.914Z,28.20
2017-08-09T12:13:51.157Z,28.60
2017-08-09T12:16:19.391Z,27.80
2017-08-09T12:18:47.863Z,27.00
2017-08-09T12:21:16.102Z,27.10
2017-08-09T12:23:44.362Z,27.40
2017-08-09T12:26:12.593Z,26.40
2017-08-09T12:28:40.846Z,26.80
2017-08-09T12:31:09.123Z,27.00
2017-08-09T12:33:37.356Z,26.70
2017-08-09T12:36:05.648Z,25.80
2017-08-09T12:38:33.896Z,26.40
2017-08-09T12:41:02.157Z,26.90
2017-08-09T12:43:30.812Z,25.70
2017-08-09T12:45:59.276Z,25.70
2017-08-09T12:48:27.524Z,25.30
2017-08-09T12:50:56.180Z,25.00
2017-08-09T12:53:24.811Z,24.80
2017-08-09T12:55:53.049Z,24.80
2017-08-09T12:58:21.336Z,24.60
2017-08-09T13:00:49.597Z,25.10
2017-08-09T13:03:17.863Z,24.50
2017-08-09T13:05:46.145Z,23.70
2017-08-09T13:08:15.002Z,24.00
2017-08-09T13:10:43.470Z,23.90
2017-08-09T13:13:12.049Z,23.80
2017-08-09T13:15:40.276Z,24.30
2017-08-09T13:18:08.510Z,24.30
2017-08-09T13:20:37.074Z,25.50
2017-08-09T13:23:05.369Z,25.60
2017-08-09T13:25:34.098Z,25.00
2017-08-09T13:28:02.687Z,25.00
2017-08-09T13:30:30.954Z,24.70
2017-08-09T13:32:59.438Z,24.70
2017-08-09T13:35:28.100Z,25.00
2017-08-09T13:37:56.743Z,25.10
2017-08-09T13:40:25.057Z,25.10
2017-08-09T13:42:53.348Z,24.20
2017-08-09T13:45:21.608Z,24.30
2017-08-09T13:47:49.983Z,24.50
2017-08-09T13:50:19.098Z,25.40
2017-08-09T13:52:47.346Z,24.60
2017-08-09T13:55:15.815Z,24.90
2017-08-09T13:57:44.102Z,24.90
2017-08-09T14:00:13.149Z,24.50
2017-08-09T14:02:41.398Z,24.50
2017-08-09T14:05:09.663Z,24.30
2017-08-09T14:07:38.136Z,24.20
2017-08-09T14:10:06.389Z,24.20
2017-08-09T14:12:34.846Z,24.20
2017-08-09T14:15:03.103Z,24.50
2017-08-09T14:17:31.359Z,24.80
2017-08-09T14:19:59.663Z,24.90
2017-08-09T14:22:27.919Z,25.20
2017-08-09T14:24:57.355Z,25.00
2017-08-09T14:27:25.609Z,25.00
2017-08-09T14:29:53.879Z,25.40
2017-08-09T14:32:22.118Z,25.10
2017-08-09T14:34:50.364Z,25.50
2017-08-09T14:37:18.653Z,25.40
2017-08-09T14:39:46.907Z,25.10
2017-08-09T14:42:15.374Z,25.50
2017-08-09T14:44:44.289Z,24.90
2017-08-09T14:47:12.517Z,24.90
2017-08-09T14:49:40.795Z,24.90
2017-08-09T14:52:09.469Z,25.70
2017-08-09T14:54:37.736Z,25.70
2017-08-09T14:57:05.988Z,25.40
2017-08-09T14:59:34.449Z,25.70
2017-08-09T15:02:03.688Z,25.40
2017-08-09T15:04:31.972Z,25.30
2017-08-09T15:07:00.227Z,24.80
2017-08-09T15:09:28.525Z,24.90
2017-08-09T15:11:56.895Z,24.90
2017-08-09T15:14:25.152Z,24.30
2017-08-09T15:16:53.424Z,24.40
2017-08-09T15:19:21.735Z,25.30
2017-08-09T15:21:49.987Z,25.00
2017-08-09T15:24:18.264Z,26.40
2017-08-09T15:26:46.525Z,26.10
2017-08-09T15:29:14.787Z,26.20
2017-08-09T15:31:43.189Z,26.30
2017-08-09T15:34:11.461Z,26.10
2017-08-09T15:36:39.808Z,25.20
2017-08-09T15:39:08.074Z,26.20
2017-08-09T15:41:36.334Z,25.80
2017-08-09T15:44:05.074Z,26.00
2017-08-09T15:46:33.372Z,25.90
2017-08-09T15:49:01.625Z,26.20
2017-08-09T15:51:29.907Z,26.50
2017-08-09T15:53:58.200Z,26.50
2017-08-09T15:56:26.694Z,26.40
2017-08-09T15:58:54.965Z,26.40
2017-08-09T16:01:23.225Z,26.80
2017-08-09T16:03:52.177Z,25.80
2017-08-09T16:06:20.539Z,25.80
2017-08-09T16:08:48.800Z,26.00
2017-08-09T16:11:17.485Z,25.80
2017-08-09T16:13:45.969Z,25.80
2017-08-09T16:16:14.375Z,25.40
2017-08-09T16:18:43.457Z,25.70
2017-08-09T16:21:11.819Z,25.70
2017-08-09T16:23:40.150Z,25.70
2017-08-09T16:26:08.472Z,25.70
2017-08-09T16:28:36.785Z,25.70
2017-08-09T16:31:05.044Z,26.00
2017-08-09T16:33:33.777Z,25.70
2017-08-09T16:36:02.109Z,25.80
2017-08-09T16:38:30.389Z,26.40
2017-08-09T16:43:39.564Z,26.50
2017-08-09T16:46:07.823Z,26.50
2017-08-09T16:48:36.172Z,26.30
2017-08-09T16:51:05.213Z,26.40
2017-08-09T16:53:33.486Z,26.70
2017-08-09T16:56:01.791Z,26.40
2017-08-09T16:58:30.113Z,26.20
2017-08-09T17:00:58.371Z,26.70
2017-08-09T17:03:26.655Z,26.50
2017-08-09T17:05:55.381Z,26.40
2017-08-09T17:08:23.734Z,26.10
2017-08-09T17:10:51.989Z,25.90
2017-08-09T17:13:20.267Z,26.70
2017-08-09T17:15:48.556Z,26.60
2017-08-09T17:18:17.183Z,25.70
2017-08-09T17:20:45.473Z,25.70
2017-08-09T17:23:14.571Z,26.10
2017-08-09T17:25:42.878Z,26.00
2017-08-09T17:28:11.239Z,25.70
2017-08-09T17:30:40.071Z,26.00
2017-08-09T17:33:09.153Z,26.00
2017-08-09T17:35:37.421Z,26.70
2017-08-09T17:38:05.694Z,26.70
2017-08-09T17:40:34.154Z,26.70
2017-08-09T17:43:02.427Z,26.00
2017-08-09T17:45:30.672Z,26.70
2017-08-09T17:47:59.031Z,27.10
2017-08-09T17:50:27.557Z,27.30
2017-08-09T17:52:55.808Z,27.10
2017-08-09T17:55:24.112Z,27.70
2017-08-09T17:57:52.808Z,28.00
2017-08-09T18:00:21.088Z,28.00
2017-08-09T18:02:49.373Z,28.60
2017-08-09T18:05:17.654Z,28.50
2017-08-09T18:07:46.290Z,28.60
2017-08-09T18:10:14.572Z,28.60
2017-08-09T18:12:42.863Z,28.50
2017-08-09T18:15:11.115Z,28.70
2017-08-09T18:17:39.366Z,28.30
2017-08-09T18:20:07.720Z,28.40
2017-08-09T18:22:35.955Z,28.80
2017-08-09T18:25:04.240Z,28.70
2017-08-09T18:27:32.610Z,29.10
2017-08-09T18:30:00.855Z,29.10
2017-08-09T18:32:29.316Z,29.70
2017-08-09T18:34:57.615Z,29.90
2017-08-09T18:37:26.086Z,29.90
2017-08-09T18:39:54.331Z,31.40
2017-08-09T18:42:22.643Z,32.50
2017-08-09T18:44:50.968Z,33.10
2017-08-09T18:47:19.272Z,34.20
2017-08-09T18:49:47.574Z,35.30
2017-08-09T18:52:16.277Z,36.00
2017-08-09T18:54:44.551Z,36.00
2017-08-09T18:57:12.813Z,36.30
2017-08-09T18:59:41.055Z,36.90
2017-08-09T19:02:09.305Z,36.90
2017-08-09T19:04:37.829Z,36.80
2017-08-09T19:07:06.132Z,37.10
2017-08-09T19:09:34.399Z,37.40
2017-08-09T19:12:02.669Z,37.60
2017-08-09T19:14:31.788Z,38.80
2017-08-09T19:17:00.033Z,38.10
2017-08-09T19:19:28.354Z,37.80
2017-08-09T19:21:56.870Z,37.60
2017-08-09T19:24:25.520Z,37.80
2017-08-09T19:26:53.804Z,37.80
2017-08-09T19:29:22.036Z,38.40
2017-08-09T19:31:50.571Z,38.40
2017-08-09T19:34:18.928Z,38.50
2017-08-09T19:36:47.177Z,38.50
2017-08-09T19:39:15.427Z,38.80
2017-08-09T19:41:43.805Z,38.80
2017-08-09T19:44:12.050Z,39.00
2017-08-09T19:46:40.296Z,39.00
2017-08-09T19:49:08.596Z,38.70
2017-08-09T19:51:36.844Z,38.70
2017-08-09T19:54:05.115Z,38.80
2017-08-09T19:56:33.403Z,38.70
2017-08-09T19:59:01.869Z,38.80
2017-08-09T20:01:30.120Z,38.80
2017-08-09T20:03:58.434Z,38.70
2017-08-09T20:06:26.704Z,38.70
2017-08-09T20:08:54.948Z,38.80
2017-08-09T20:11:23.452Z,39.10
2017-08-09T20:13:51.696Z,39.40
2017-08-09T20:16:20.044Z,40.00
2017-08-09T20:18:48.329Z,39.90
2017-08-09T20:21:17.072Z,40.00
2017-08-09T20:23:45.353Z,39.90
2017-08-09T20:26:13.632Z,40.60
2017-08-09T20:28:41.919Z,40.50
2017-08-09T20:31:10.391Z,40.50
2017-08-09T20:33:38.702Z,40.60
2017-08-09T20:36:06.936Z,40.00
2017-08-09T20:38:35.244Z,40.30
2017-08-09T20:41:03.793Z,40.00
2017-08-09T20:43:32.061Z,40.50
2017-08-09T20:46:00.312Z,40.60
2017-08-09T20:48:29.104Z,41.20
2017-08-09T20:50:57.445Z,41.20
2017-08-09T20:53:25.750Z,40.70
2017-08-09T20:55:54.512Z,40.60
2017-08-09T20:58:22.901Z,40.70
2017-08-09T21:00:51.153Z,40.70
2017-08-09T21:03:20.323Z,41.00
2017-08-09T21:05:48.614Z,40.90
2017-08-09T21:08:16.988Z,40.90
2017-08-09T21:10:45.336Z,41.00
2017-08-09T21:13:13.618Z,41.50
2017-08-09T21:15:41.848Z,40.90
2017-08-09T21:18:10.124Z,40.50
2017-08-09T21:20:40.817Z,44.00
2017-08-09T21:23:11.145Z,44.70
2017-08-09T21:25:40.726Z,42.10
2017-08-09T21:28:09.757Z,42.10
2017-08-09T21:30:38.415Z,41.60
2017-08-09T21:33:06.728Z,41.50
2017-08-09T21:35:34.982Z,41.80
2017-08-09T21:38:03.432Z,41.30
2017-08-09T21:40:31.700Z,40.60
2017-08-09T21:43:01.210Z,40.70
2017-08-09T21:45:29.554Z,40.70
2017-08-09T21:47:59.122Z,40.60
2017-08-09T21:50:28.023Z,40.60
2017-08-09T21:52:56.433Z,40.50
2017-08-09T21:55:24.675Z,40.30
2017-08-09T21:57:52.935Z,40.20
2017-08-09T22:00:21.292Z,40.20
2017-08-09T22:02:49.874Z,40.00
2017-08-09T22:05:18.124Z,40.00
2017-08-09T22:07:46.637Z,39.90
2017-08-09T22:10:15.491Z,39.90
2017-08-09T22:12:43.775Z,40.30
2017-08-09T22:15:12.146Z,40.90
2017-08-09T22:17:40.382Z,40.90
2017-08-09T22:20:08.621Z,41.20
2017-08-09T22:22:37.701Z,41.80
2017-08-09T22:25:05.944Z,41.80
2017-08-09T22:27:35.143Z,41.90
2017-08-09T22:30:03.611Z,41.90
2017-08-09T22:32:31.848Z,41.90
2017-08-09T22:35:00.111Z,41.80
2017-08-09T22:37:28.989Z,41.80
2017-08-09T22:39:57.260Z,41.80
2017-08-09T22:42:25.599Z,41.80
2017-08-09T22:44:53.916Z,41.90
2017-08-09T22:47:22.171Z,42.20
2017-08-09T22:49:50.421Z,42.20
2017-08-09T22:52:22.602Z,41.90
2017-08-09T22:54:50.912Z,41.60
2017-08-09T22:57:19.195Z,41.60
2017-08-09T22:59:47.436Z,41.30
2017-08-09T23:02:17.072Z,41.30
2017-08-09T23:04:46.072Z,41.50
2017-08-09T23:07:14.325Z,41.30
2017-08-09T23:09:42.627Z,41.30
2017-08-09T23:12:11.053Z,41.60
2017-08-09T23:14:39.295Z,41.60
2017-08-09T23:17:07.537Z,41.60
2017-08-09T23:19:35.973Z,41.60
2017-08-09T23:22:04.902Z,41.60
2017-08-09T23:24:33.131Z,42.10
2017-08-09T23:27:01.408Z,42.20
2017-08-09T23:29:29.653Z,42.20
2017-08-09T23:31:58.677Z,42.20
2017-08-09T23:34:27.123Z,42.70
2017-08-09T23:36:55.380Z,42.80
2017-08-09T23:39:23.634Z,43.00
2017-08-09T23:41:51.903Z,43.10
2017-08-09T23:44:20.151Z,43.10
2017-08-09T23:46:48.789Z,43.40
2017-08-09T23:49:17.065Z,43.40
2017-08-09T23:51:45.297Z,43.40
2017-08-09T23:54:13.556Z,43.40
2017-08-09T23:56:41.985Z,43.30
2017-08-09T23:59:10.237Z,43.10
